Zimmerdale, Kansas
Current Conditions -  °F | °C
As of 7:35 AM on Saturday 25 Oct 2014 (Local Time) from KEWK Reporting Station
Overcast Overcast  
Wind Chill: 55°   Ceiling: 500
Heat Index: 55°   Visibility: 0.75mi
Dew Point: 52°   Wind: 5mph
Humidity: 88%   Direction: 120°ESE
Pressure: 30.07"   Gusts: NA
Location:  38.0076°N, 97.2953°W
Report Text: KEWK 251235Z AUTO 12004KT 3/4SM VV005 13/11 A3007 RMK AO1
Loading
Personal Weather Stations






























Interactive Weather Map
Tropical Storm Tracking
New forecast layout! Learn more

10-Day Weather Forecast

Advertisements
Track Severe Weather on mobile